createdAt,value
2022-08-16T00:02:33.251Z,20.92
2022-08-16T00:05:01.171Z,20.86
2022-08-16T00:07:29.629Z,20.78
2022-08-16T00:09:58.062Z,20.78
2022-08-16T00:12:29.807Z,20.73
2022-08-16T00:14:59.324Z,20.72
2022-08-16T00:17:26.783Z,20.67
2022-08-16T00:19:55.456Z,20.63
2022-08-16T00:22:25.546Z,20.68
2022-08-16T00:24:54.861Z,20.65
2022-08-16T00:27:22.540Z,20.52
2022-08-16T00:30:00.566Z,20.55
2022-08-16T00:32:28.132Z,20.58
2022-08-16T00:35:00.618Z,20.50
2022-08-16T00:37:57.586Z,20.45
2022-08-16T00:40:34.075Z,20.29
2022-08-16T00:43:04.539Z,20.35
2022-08-16T00:45:57.756Z,20.32
2022-08-16T00:48:46.505Z,20.37
2022-08-16T00:51:33.226Z,20.36
2022-08-16T00:54:24.446Z,20.36
2022-08-16T00:57:11.640Z,20.32
2022-08-16T00:59:59.604Z,20.31
2022-08-16T01:02:31.246Z,20.32
2022-08-16T01:05:10.302Z,20.27
2022-08-16T01:07:50.760Z,20.24
2022-08-16T01:10:31.578Z,20.12
2022-08-16T01:13:05.292Z,20.07
2022-08-16T01:15:37.672Z,20.02
2022-08-16T01:18:39.315Z,20.02
2022-08-16T01:21:16.336Z,19.97
2022-08-16T01:24:05.571Z,19.98
2022-08-16T01:26:56.293Z,19.97
2022-08-16T01:29:58.163Z,19.92
2022-08-16T01:32:34.284Z,19.92
2022-08-16T01:35:07.259Z,19.85
2022-08-16T01:37:44.918Z,19.87
2022-08-16T01:40:25.221Z,19.79
2022-08-16T01:42:55.346Z,19.71
2022-08-16T01:45:23.173Z,19.76
2022-08-16T01:47:52.190Z,19.77
2022-08-16T01:50:41.799Z,19.75
2022-08-16T01:53:10.154Z,19.72
2022-08-16T01:55:56.689Z,19.75
2022-08-16T01:58:24.015Z,19.70
2022-08-16T02:00:50.817Z,19.64
2022-08-16T02:03:18.046Z,19.65
2022-08-16T02:05:52.230Z,19.65
2022-08-16T02:08:33.835Z,19.66
2022-08-16T02:11:05.624Z,19.57
2022-08-16T02:13:32.867Z,19.44
2022-08-16T02:16:00.137Z,19.40
2022-08-16T02:18:28.205Z,19.40
2022-08-16T02:20:55.187Z,19.34
2022-08-16T02:23:22.678Z,19.36
2022-08-16T02:25:52.136Z,19.31
2022-08-16T02:28:20.948Z,19.24
2022-08-16T02:30:51.698Z,19.13
2022-08-16T02:33:24.538Z,19.08
2022-08-16T02:36:47.873Z,19.08
2022-08-16T02:39:03.647Z,19.12
2022-08-16T02:41:30.958Z,19.09
2022-08-16T02:43:58.378Z,19.09
2022-08-16T02:46:33.486Z,19.04
2022-08-16T02:49:01.806Z,19.05
2022-08-16T02:51:29.420Z,19.11
2022-08-16T02:53:59.455Z,19.09
2022-08-16T02:56:32.219Z,19.06
2022-08-16T02:58:59.772Z,19.08
2022-08-16T03:01:36.705Z,19.08
2022-08-16T03:04:30.199Z,19.12
2022-08-16T03:06:59.235Z,18.93
2022-08-16T03:09:36.553Z,19.02
2022-08-16T03:12:04.804Z,19.08
2022-08-16T03:14:34.784Z,19.07
2022-08-16T03:17:04.116Z,19.09
2022-08-16T03:19:47.322Z,19.04
2022-08-16T03:22:27.764Z,19.07
2022-08-16T03:25:02.494Z,19.09
2022-08-16T03:27:33.061Z,18.95
2022-08-16T03:30:19.928Z,18.94
2022-08-16T03:32:51.386Z,18.94
2022-08-16T03:35:23.399Z,18.81
2022-08-16T03:38:02.600Z,18.83
2022-08-16T03:40:35.254Z,18.78
2022-08-16T03:43:20.281Z,18.71
2022-08-16T03:45:48.209Z,18.59
2022-08-16T03:48:15.109Z,18.63
2022-08-16T03:50:59.743Z,18.61
2022-08-16T03:53:37.646Z,18.49
2022-08-16T03:56:08.023Z,18.50
2022-08-16T03:58:48.422Z,18.47
2022-08-16T04:01:18.549Z,18.42
2022-08-16T04:03:45.849Z,18.43
2022-08-16T04:06:12.720Z,18.38
2022-08-16T04:08:39.539Z,18.34
2022-08-16T04:11:06.765Z,18.33
2022-08-16T04:14:00.533Z,18.35
2022-08-16T04:16:27.283Z,18.20
2022-08-16T04:19:02.511Z,18.27
2022-08-16T04:21:36.049Z,18.27
2022-08-16T04:24:12.367Z,18.32
2022-08-16T04:26:46.069Z,18.31
2022-08-16T04:29:21.763Z,18.28
2022-08-16T04:31:56.146Z,18.24
2022-08-16T04:34:29.994Z,18.23
2022-08-16T04:37:01.047Z,18.27
2022-08-16T04:39:36.768Z,18.31
2022-08-16T04:42:25.831Z,18.33
2022-08-16T04:44:56.216Z,18.28
2022-08-16T04:47:31.399Z,18.29
2022-08-16T04:49:58.910Z,18.33
2022-08-16T04:52:33.496Z,18.37
2022-08-16T04:55:07.982Z,18.41
2022-08-16T04:57:35.940Z,18.40
2022-08-16T05:00:32.628Z,18.46
2022-08-16T05:02:58.686Z,18.44
2022-08-16T05:05:32.693Z,18.41
2022-08-16T05:08:29.163Z,18.47
2022-08-16T05:10:59.868Z,18.46
2022-08-16T05:13:39.800Z,18.51
2022-08-16T05:16:11.848Z,18.56
2022-08-16T05:18:43.201Z,18.57
2022-08-16T05:21:11.294Z,18.62
2022-08-16T05:23:44.340Z,18.71
2022-08-16T05:26:19.890Z,18.67
2022-08-16T05:28:55.513Z,18.76
2022-08-16T05:31:30.358Z,18.79
2022-08-16T05:34:00.632Z,18.87
2022-08-16T05:36:34.402Z,18.97
2022-08-16T05:39:07.777Z,19.08
2022-08-16T05:41:45.130Z,19.11
2022-08-16T05:44:22.904Z,19.07
2022-08-16T05:46:56.178Z,19.02
2022-08-16T05:49:26.147Z,19.18
2022-08-16T05:52:11.267Z,19.26
2022-08-16T05:54:46.794Z,19.28
2022-08-16T05:57:18.365Z,19.36
2022-08-16T05:59:50.357Z,19.42
2022-08-16T06:02:30.519Z,19.50
2022-08-16T06:05:00.235Z,19.52
2022-08-16T06:07:28.712Z,19.61
2022-08-16T06:10:06.676Z,19.67
2022-08-16T06:12:37.936Z,19.76
2022-08-16T06:15:16.570Z,19.80
2022-08-16T06:17:44.754Z,19.82
2022-08-16T06:20:34.680Z,19.86
2022-08-16T06:23:17.261Z,19.99
2022-08-16T06:25:54.825Z,20.01
2022-08-16T06:28:34.825Z,20.08
2022-08-16T06:31:04.639Z,20.03
2022-08-16T06:33:41.277Z,20.07
2022-08-16T06:36:11.597Z,20.09
2022-08-16T06:38:52.254Z,20.17
2022-08-16T06:41:39.828Z,20.18
2022-08-16T06:44:20.683Z,20.16
2022-08-16T06:46:50.628Z,20.27
2022-08-16T06:49:18.120Z,20.40
2022-08-16T06:51:46.672Z,20.41
2022-08-16T06:54:20.000Z,20.55
2022-08-16T06:56:46.541Z,20.69
2022-08-16T06:59:14.719Z,20.73
2022-08-16T07:01:52.084Z,20.83
2022-08-16T07:04:31.569Z,20.74
2022-08-16T07:07:01.762Z,20.76
2022-08-16T07:09:30.618Z,20.84
2022-08-16T07:12:03.576Z,20.92
2022-08-16T07:14:33.338Z,21.01
2022-08-16T07:17:01.144Z,20.82
2022-08-16T07:20:03.906Z,20.90
2022-08-16T07:22:38.177Z,20.87
2022-08-16T07:25:14.724Z,21.07
2022-08-16T07:27:43.344Z,20.94
2022-08-16T07:30:39.450Z,21.01
2022-08-16T07:33:05.295Z,21.00
2022-08-16T07:35:34.723Z,21.19
2022-08-16T07:38:03.469Z,21.35
2022-08-16T07:40:59.600Z,21.49
2022-08-16T07:43:25.506Z,21.40
2022-08-16T07:45:59.383Z,21.45
2022-08-16T07:48:28.692Z,21.60
2022-08-16T07:50:59.136Z,21.58
2022-08-16T07:53:28.908Z,21.74
2022-08-16T07:55:56.903Z,21.70
2022-08-16T07:58:34.525Z,21.65
2022-08-16T08:01:10.330Z,21.92
2022-08-16T08:03:48.939Z,22.32
2022-08-16T08:06:19.198Z,22.45
2022-08-16T08:08:51.104Z,22.64
2022-08-16T08:11:23.499Z,22.70
2022-08-16T08:13:54.359Z,22.55
2022-08-16T08:16:22.199Z,22.68
2022-08-16T08:19:01.010Z,22.97
2022-08-16T08:21:59.837Z,23.14
2022-08-16T08:24:18.295Z,23.34
2022-08-16T08:26:50.152Z,23.53
2022-08-16T08:29:22.996Z,23.53
2022-08-16T08:31:53.175Z,23.62
2022-08-16T08:34:22.201Z,23.86
2022-08-16T08:36:54.078Z,23.79
2022-08-16T08:39:38.348Z,24.03
2022-08-16T08:42:26.599Z,24.49
2022-08-16T08:44:54.096Z,24.64
2022-08-16T08:47:21.631Z,24.48
2022-08-16T08:49:55.653Z,24.23
2022-08-16T08:52:33.647Z,24.33
2022-08-16T08:55:09.046Z,24.91
2022-08-16T08:57:40.602Z,24.58
2022-08-16T09:00:27.052Z,25.00
2022-08-16T09:02:58.824Z,25.09
2022-08-16T09:05:35.531Z,24.63
2022-08-16T09:08:06.002Z,25.30
2022-08-16T09:11:02.127Z,25.65
2022-08-16T09:13:33.244Z,25.83
2022-08-16T09:16:00.294Z,26.14
2022-08-16T09:18:35.835Z,26.12
2022-08-16T09:21:07.021Z,25.86
2022-08-16T09:23:37.581Z,26.20
2022-08-16T09:26:45.728Z,26.39
2022-08-16T09:29:15.697Z,26.67
2022-08-16T09:31:42.060Z,27.01
2022-08-16T09:34:10.401Z,27.49
2022-08-16T09:36:37.644Z,27.53
2022-08-16T09:39:16.354Z,27.04
2022-08-16T09:41:53.191Z,27.49
2022-08-16T09:45:11.180Z,27.43
2022-08-16T09:47:10.311Z,26.92
2022-08-16T09:49:37.536Z,26.77
2022-08-16T09:52:09.582Z,26.67
2022-08-16T09:54:37.108Z,26.28
2022-08-16T09:57:04.230Z,26.56
2022-08-16T09:59:31.456Z,27.23
2022-08-16T10:02:26.396Z,27.41
2022-08-16T10:04:54.949Z,26.77
2022-08-16T10:07:22.295Z,26.14
2022-08-16T10:09:55.114Z,26.54
2022-08-16T10:12:45.304Z,26.88
2022-08-16T10:15:17.723Z,26.91
2022-08-16T10:17:59.967Z,26.53
2022-08-16T10:20:34.614Z,27.47
2022-08-16T10:23:07.240Z,28.02
2022-08-16T10:27:03.785Z,27.54
2022-08-16T10:28:29.721Z,27.36
2022-08-16T10:30:59.745Z,26.52
2022-08-16T10:33:29.656Z,26.71
2022-08-16T10:36:03.676Z,26.83
2022-08-16T10:38:33.142Z,27.04
2022-08-16T10:41:04.106Z,26.90
2022-08-16T10:43:31.106Z,26.75
2022-08-16T10:46:00.793Z,27.16
2022-08-16T10:48:29.372Z,27.55
2022-08-16T10:50:58.454Z,28.33
2022-08-16T10:53:32.476Z,28.09
2022-08-16T10:56:50.693Z,27.94
2022-08-16T10:58:52.815Z,28.31
2022-08-16T11:01:39.906Z,28.87
2022-08-16T11:05:04.621Z,29.71
2022-08-16T11:07:43.552Z,29.41
2022-08-16T11:09:42.948Z,29.04
2022-08-16T11:12:14.439Z,29.33
2022-08-16T11:15:11.235Z,30.14
2022-08-16T11:17:28.503Z,30.67
2022-08-16T11:20:01.588Z,30.32
2022-08-16T11:22:48.891Z,29.67
2022-08-16T11:28:07.112Z,30.95
2022-08-16T11:30:38.908Z,31.65
2022-08-16T11:33:07.611Z,31.18
2022-08-16T11:38:51.761Z,29.69
2022-08-16T11:41:10.659Z,31.25
2022-08-16T11:43:40.344Z,30.77
2022-08-16T11:46:43.627Z,31.54
2022-08-16T11:48:58.094Z,32.24
2022-08-16T11:51:24.623Z,31.09
2022-08-16T11:53:51.714Z,31.07
2022-08-16T11:56:19.797Z,32.42
2022-08-16T11:59:05.835Z,32.73
2022-08-16T12:01:44.190Z,32.51
2022-08-16T12:04:20.178Z,31.65
2022-08-16T12:06:49.312Z,31.35
2022-08-16T12:09:16.603Z,32.80
2022-08-16T12:11:44.780Z,32.28
2022-08-16T12:14:14.158Z,32.78
2022-08-16T12:16:48.682Z,33.53
2022-08-16T12:19:22.462Z,33.36
2022-08-16T12:22:00.149Z,32.24
2022-08-16T12:24:27.864Z,33.16
2022-08-16T12:26:55.406Z,33.50
2022-08-16T12:29:21.879Z,33.90
2022-08-16T12:32:00.405Z,34.68
2022-08-16T12:34:37.255Z,35.05
2022-08-16T12:37:10.359Z,34.67
2022-08-16T12:39:38.463Z,35.39
2022-08-16T12:42:14.322Z,35.66
2022-08-16T12:44:43.498Z,35.98
2022-08-16T12:47:28.679Z,35.60
2022-08-16T12:49:55.193Z,35.18
2022-08-16T12:52:32.633Z,34.60
2022-08-16T12:55:02.740Z,34.67
2022-08-16T12:57:36.783Z,35.54
2022-08-16T13:00:13.172Z,35.25
2022-08-16T13:02:53.970Z,36.06
2022-08-16T13:05:20.530Z,34.67
2022-08-16T13:07:51.328Z,36.14
2022-08-16T13:10:37.065Z,36.36
2022-08-16T13:13:05.784Z,36.83
2022-08-16T13:15:32.351Z,37.07
2022-08-16T13:18:03.192Z,35.57
2022-08-16T13:20:50.676Z,35.15
2022-08-16T13:23:18.543Z,35.95
2022-08-16T13:25:49.744Z,37.16
2022-08-16T13:28:18.759Z,37.48
2022-08-16T13:30:52.532Z,37.26
2022-08-16T13:33:29.274Z,38.15
2022-08-16T13:36:00.266Z,36.65
2022-08-16T13:38:36.475Z,37.20
2022-08-16T13:41:08.244Z,38.25
2022-08-16T13:43:38.250Z,37.48
2022-08-16T13:46:06.536Z,38.37
2022-08-16T13:48:37.340Z,37.77
2022-08-16T13:51:16.768Z,37.66
2022-08-16T13:53:44.398Z,38.16
2022-08-16T13:56:11.048Z,38.66
2022-08-16T13:58:50.711Z,37.66
2022-08-16T14:01:22.680Z,38.17
2022-08-16T14:03:50.213Z,37.67
2022-08-16T14:06:21.392Z,37.29
2022-08-16T14:08:58.785Z,36.75
2022-08-16T14:11:33.434Z,37.83
2022-08-16T14:14:00.239Z,38.33
2022-08-16T14:16:34.273Z,36.65
2022-08-16T14:19:03.599Z,36.12
2022-08-16T14:21:34.831Z,35.33
2022-08-16T14:24:16.739Z,35.68
2022-08-16T14:26:49.822Z,36.54
2022-08-16T14:31:53.469Z,37.29
2022-08-16T14:34:20.765Z,37.90
2022-08-16T14:36:47.331Z,38.11
2022-08-16T14:39:18.637Z,37.03
2022-08-16T14:41:45.112Z,38.67
2022-08-16T14:44:12.080Z,39.02
2022-08-16T14:46:40.251Z,39.67
2022-08-16T14:49:09.642Z,39.51
2022-08-16T14:51:36.611Z,39.76
2022-08-16T14:54:05.432Z,39.92
2022-08-16T14:56:42.521Z,39.71
2022-08-16T14:59:10.777Z,39.54
2022-08-16T15:01:59.857Z,40.54
2022-08-16T15:04:37.931Z,40.62
2022-08-16T15:07:10.979Z,40.56
2022-08-16T15:09:44.844Z,41.05
2022-08-16T15:12:31.082Z,40.80
2022-08-16T15:15:01.359Z,38.44
2022-08-16T15:17:33.829Z,39.19
2022-08-16T15:20:08.752Z,39.21
2022-08-16T15:22:40.640Z,37.80
2022-08-16T15:25:17.699Z,38.62
2022-08-16T15:27:45.598Z,38.62
2022-08-16T15:30:56.922Z,39.36
2022-08-16T15:33:15.854Z,39.29
2022-08-16T15:35:43.415Z,39.27
2022-08-16T15:38:10.645Z,40.08
2022-08-16T15:40:59.121Z,40.71
2022-08-16T15:43:39.054Z,36.62
2022-08-16T15:46:35.749Z,38.67
2022-08-16T15:49:12.404Z,39.12
2022-08-16T15:51:39.523Z,39.99
2022-08-16T15:54:30.104Z,38.98
2022-08-16T15:56:55.302Z,36.89
2022-08-16T15:59:27.340Z,36.66
2022-08-16T16:01:55.815Z,36.34
2022-08-16T16:04:25.618Z,37.18
2022-08-16T16:06:55.336Z,38.35
2022-08-16T16:09:26.233Z,39.17
2022-08-16T16:12:16.179Z,39.27
2022-08-16T16:14:51.666Z,38.95
2022-08-16T16:17:18.228Z,39.41
2022-08-16T16:19:44.757Z,39.69
2022-08-16T16:22:16.134Z,39.41
2022-08-16T16:24:46.917Z,38.95
2022-08-16T16:27:13.917Z,39.38
2022-08-16T16:29:42.515Z,39.54
2022-08-16T16:32:13.337Z,39.20
2022-08-16T16:34:43.275Z,38.87
2022-08-16T16:37:10.325Z,38.97
2022-08-16T16:39:37.706Z,39.62
2022-08-16T16:42:05.370Z,39.40
2022-08-16T16:44:36.507Z,38.94
2022-08-16T16:47:04.023Z,39.05
2022-08-16T16:49:32.837Z,39.02
2022-08-16T16:52:07.489Z,39.00
2022-08-16T16:54:35.390Z,38.90
2022-08-16T16:57:02.479Z,38.80
2022-08-16T16:59:29.286Z,38.82
2022-08-16T17:02:41.472Z,39.05
2022-08-16T17:04:46.063Z,38.72
2022-08-16T17:07:14.345Z,38.76
2022-08-16T17:09:41.190Z,38.71
2022-08-16T17:12:10.072Z,38.20
2022-08-16T17:14:42.622Z,38.27
2022-08-16T17:17:09.950Z,37.89
2022-08-16T17:19:41.179Z,37.74
2022-08-16T17:22:14.279Z,37.34
2022-08-16T17:24:50.226Z,37.00
2022-08-16T17:27:19.345Z,36.92
2022-08-16T17:30:01.564Z,36.59
2022-08-16T17:32:33.870Z,36.03
2022-08-16T17:35:18.972Z,35.39
2022-08-16T17:37:54.359Z,34.87
2022-08-16T17:40:38.059Z,34.55
2022-08-16T17:43:19.018Z,34.36
2022-08-16T17:45:46.420Z,34.25
2022-08-16T17:48:13.664Z,33.57
2022-08-16T17:50:41.720Z,33.54
2022-08-16T17:53:11.315Z,33.29
2022-08-16T17:55:40.798Z,33.34
2022-08-16T17:58:23.083Z,33.09
2022-08-16T18:00:56.361Z,33.02
2022-08-16T18:04:07.803Z,32.87
2022-08-16T18:06:23.406Z,32.67
2022-08-16T18:08:57.894Z,32.61
2022-08-16T18:11:29.876Z,32.29
2022-08-16T18:13:59.389Z,32.23
2022-08-16T18:16:25.886Z,32.12
2022-08-16T18:18:52.563Z,32.23
2022-08-16T18:21:37.804Z,32.04
2022-08-16T18:24:04.580Z,31.80
2022-08-16T18:26:31.030Z,31.61
2022-08-16T18:28:57.496Z,31.52
2022-08-16T18:31:25.021Z,31.33
2022-08-16T18:33:54.725Z,31.07
2022-08-16T18:36:23.888Z,30.74
2022-08-16T18:38:50.889Z,30.63
2022-08-16T18:41:18.558Z,30.49
2022-08-16T18:44:00.883Z,30.40
2022-08-16T18:46:31.578Z,30.15
2022-08-16T18:48:58.036Z,30.03
2022-08-16T18:51:25.771Z,29.91
2022-08-16T18:53:52.922Z,29.98
2022-08-16T18:56:19.775Z,29.75
2022-08-16T18:58:46.354Z,29.65
2022-08-16T19:01:13.024Z,29.33
2022-08-16T19:03:39.598Z,29.24
2022-08-16T19:06:13.702Z,29.13
2022-08-16T19:08:43.625Z,28.80
2022-08-16T19:11:14.545Z,28.73
2022-08-16T19:13:45.492Z,28.43
2022-08-16T19:16:13.679Z,28.44
2022-08-16T19:18:43.566Z,28.25
2022-08-16T19:21:14.718Z,28.11
2022-08-16T19:23:43.906Z,28.25
2022-08-16T19:26:24.734Z,28.06
2022-08-16T19:28:58.442Z,27.85
2022-08-16T19:31:30.476Z,27.81
2022-08-16T19:33:57.988Z,27.63
2022-08-16T19:36:31.876Z,27.34
2022-08-16T19:39:04.499Z,27.22
2022-08-16T19:41:37.050Z,27.28
2022-08-16T19:44:04.494Z,27.25
2022-08-16T19:46:31.790Z,26.88
2022-08-16T19:48:59.395Z,26.93
2022-08-16T19:51:25.928Z,26.98
2022-08-16T19:53:52.615Z,26.86
2022-08-16T19:56:19.735Z,26.81
2022-08-16T19:59:08.760Z,26.64
2022-08-16T20:01:37.358Z,26.36
2022-08-16T20:04:08.171Z,26.42
2022-08-16T20:06:38.618Z,26.24
2022-08-16T20:09:05.984Z,26.17
2022-08-16T20:11:32.650Z,26.14
2022-08-16T20:13:59.371Z,25.94
2022-08-16T20:16:26.269Z,26.14
2022-08-16T20:18:52.864Z,25.88
2022-08-16T20:21:19.435Z,25.86
2022-08-16T20:23:46.394Z,25.70
2022-08-16T20:26:13.032Z,25.65
2022-08-16T20:28:53.600Z,25.67
2022-08-16T20:31:25.529Z,25.58
2022-08-16T20:33:53.135Z,25.35
2022-08-16T20:36:19.718Z,25.44
2022-08-16T20:38:47.842Z,25.29
2022-08-16T20:41:15.861Z,25.30
2022-08-16T20:43:42.601Z,25.12
2022-08-16T20:46:11.416Z,25.01
2022-08-16T20:48:38.054Z,25.00
2022-08-16T20:51:06.668Z,24.89
2022-08-16T20:53:33.886Z,24.80
2022-08-16T20:56:00.580Z,24.76
2022-08-16T20:58:27.106Z,24.67
2022-08-16T21:00:53.697Z,24.56
2022-08-16T21:03:20.325Z,24.37
2022-08-16T21:05:46.873Z,24.31
2022-08-16T21:08:51.551Z,24.34
2022-08-16T21:11:03.276Z,24.33
2022-08-16T21:13:30.742Z,23.88
2022-08-16T21:15:58.390Z,23.78
2022-08-16T21:18:24.877Z,23.92
2022-08-16T21:20:51.717Z,23.92
2022-08-16T21:23:18.748Z,23.89
2022-08-16T21:25:58.300Z,23.66
2022-08-16T21:28:39.480Z,23.78
2022-08-16T21:31:10.796Z,23.78
2022-08-16T21:33:37.291Z,23.80
2022-08-16T21:36:04.160Z,23.70
2022-08-16T21:38:31.283Z,23.70
2022-08-16T21:41:02.932Z,23.46
2022-08-16T21:43:32.841Z,23.50
2022-08-16T21:46:04.577Z,23.24
2022-08-16T21:48:34.536Z,23.14
2022-08-16T21:51:05.090Z,23.24
2022-08-16T21:53:31.747Z,23.33
2022-08-16T21:55:59.503Z,23.13
2022-08-16T21:58:26.706Z,23.11
2022-08-16T22:00:54.070Z,23.17
2022-08-16T22:03:21.153Z,23.00
2022-08-16T22:06:11.534Z,22.80
2022-08-16T22:08:35.735Z,22.83
2022-08-16T22:11:13.344Z,22.85
2022-08-16T22:13:40.269Z,22.82
2022-08-16T22:16:08.643Z,22.80
2022-08-16T22:18:35.068Z,22.75
2022-08-16T22:21:01.557Z,22.67
2022-08-16T22:23:28.143Z,22.75
2022-08-16T22:25:55.712Z,22.65
2022-08-16T22:28:23.161Z,22.47
2022-08-16T22:30:49.917Z,22.39
2022-08-16T22:33:20.068Z,22.23
2022-08-16T22:35:53.355Z,22.34
2022-08-16T22:38:55.279Z,22.30
2022-08-16T22:41:07.338Z,22.09
2022-08-16T22:43:33.895Z,22.19
2022-08-16T22:46:00.587Z,22.25
2022-08-16T22:48:27.128Z,22.07
2022-08-16T22:50:53.628Z,22.14
2022-08-16T22:53:20.555Z,22.04
2022-08-16T22:55:47.384Z,21.96
2022-08-16T22:58:13.989Z,21.73
2022-08-16T23:00:40.824Z,21.68
2022-08-16T23:03:12.241Z,21.63
2022-08-16T23:05:55.427Z,21.71
2022-08-16T23:08:32.290Z,21.75
2022-08-16T23:11:09.090Z,21.68
2022-08-16T23:13:36.064Z,21.77
2022-08-16T23:16:10.703Z,21.63
2022-08-16T23:18:39.078Z,21.50
2022-08-16T23:21:09.275Z,21.50
2022-08-16T23:23:37.001Z,21.59
2022-08-16T23:26:46.030Z,21.71
2022-08-16T23:28:50.819Z,21.52
2022-08-16T23:31:17.535Z,21.47
2022-08-16T23:33:44.499Z,21.57
2022-08-16T23:36:11.165Z,21.46
2022-08-16T23:38:39.617Z,21.38
2022-08-16T23:41:11.454Z,21.48
2022-08-16T23:43:42.939Z,21.63
2022-08-16T23:46:13.797Z,21.47
2022-08-16T23:49:56.959Z,21.51
2022-08-16T23:51:28.829Z,21.43
2022-08-16T23:53:55.596Z,21.39
2022-08-16T23:56:22.298Z,21.36
2022-08-16T23:58:54.251Z,21.36
